Time;durP1;ratioP1;P1;durP2;ratioP2;P2;SDS_P1;SDS_P2;PMS_P1;PMS_P2;Temp;Humidity;BMP_temperature;BMP_pressure;BME280_temperature;BME280_humidity;BME280_pressure;Samples;Min_cycle;Max_cycle;Signal;HPM_P1;HPM_P2
2023/01/01 00:00:23;;;;;;;906.30;629.30;;;5.80;99.90;;;;;;5052522;28;20179;-60
2023/01/01 00:02:48;;;;;;;856.10;614.47;;;5.90;99.90;;;;;;5045660;28;20202;-59
2023/01/01 00:05:14;;;;;;;883.80;628.53;;;5.80;99.90;;;;;;5057474;28;20829;-59
2023/01/01 00:07:39;;;;;;;888.37;619.40;;;5.80;99.90;;;;;;5059727;28;20202;-60
2023/01/01 00:12:49;;;;;;;873.40;606.43;;;5.80;99.90;;;;;;5056177;28;20217;-59
2023/01/01 00:15:15;;;;;;;879.43;607.90;;;5.80;99.90;;;;;;5050710;28;20425;-61
2023/01/01 00:17:41;;;;;;;884.60;620.10;;;5.80;99.90;;;;;;5054903;28;20194;-62
2023/01/01 00:20:07;;;;;;;864.40;600.13;;;5.90;99.90;;;;;;5062812;28;20182;-64
2023/01/01 00:22:32;;;;;;;852.33;594.50;;;5.90;99.90;;;;;;5056510;28;20191;-61
2023/01/01 00:24:58;;;;;;;646.87;428.70;;;5.90;99.90;;;;;;5052869;28;20439;-60
2023/01/01 00:27:23;;;;;;;522.37;314.93;;;5.90;99.90;;;;;;5042781;28;20237;-61
2023/01/01 00:29:49;;;;;;;459.13;256.20;;;5.80;99.90;;;;;;5035750;28;20174;-60
2023/01/01 00:32:15;;;;;;;477.83;263.83;;;5.70;99.90;;;;;;5044558;28;20198;-60
2023/01/01 00:34:40;;;;;;;472.33;253.00;;;5.70;99.90;;;;;;5051005;28;20182;-59
2023/01/01 00:37:06;;;;;;;440.00;235.40;;;5.70;99.90;;;;;;5053167;28;20604;-60
2023/01/01 00:39:31;;;;;;;446.83;249.80;;;5.70;99.90;;;;;;5064642;28;20183;-59
2023/01/01 00:41:57;;;;;;;478.70;273.33;;;5.70;99.90;;;;;;5059470;28;20202;-59
2023/01/01 00:44:23;;;;;;;546.50;336.60;;;5.60;99.90;;;;;;5062226;28;20185;-59
2023/01/01 00:46:48;;;;;;;542.27;334.67;;;5.60;99.90;;;;;;5058661;28;20209;-59
2023/01/01 00:49:14;;;;;;;522.90;316.87;;;5.60;99.90;;;;;;5068204;28;20193;-60
2023/01/01 00:51:40;;;;;;;536.60;321.10;;;5.60;99.90;;;;;;5072691;28;20581;-59
2023/01/01 00:54:05;;;;;;;504.00;291.90;;;5.60;99.90;;;;;;5074727;28;20542;-60
2023/01/01 00:56:31;;;;;;;488.97;268.60;;;5.60;99.90;;;;;;5068628;28;20279;-59
2023/01/01 00:58:57;;;;;;;433.37;218.40;;;5.60;99.90;;;;;;5055795;28;20181;-59
2023/01/01 01:01:23;;;;;;;458.70;244.77;;;5.60;99.90;;;;;;5055217;28;20461;-59
2023/01/01 01:03:48;;;;;;;711.97;286.73;;;5.50;99.90;;;;;;5064056;28;20182;-59
2023/01/01 01:06:16;;;;;;;731.03;259.30;;;5.50;99.90;;;;;;5070148;28;20690;-59
2023/01/01 01:08:45;;;;;;;451.83;218.03;;;5.50;99.90;;;;;;5070097;28;20183;-59
2023/01/01 01:11:12;;;;;;;415.63;194.13;;;5.50;99.90;;;;;;5081654;28;20971;-59
2023/01/01 01:13:38;;;;;;;451.83;206.30;;;5.50;99.90;;;;;;5073272;28;20932;-58
2023/01/01 01:16:16;;;;;;;631.87;215.77;;;5.50;99.90;;;;;;5060798;28;20890;-59
2023/01/01 01:18:42;;;;;;;501.47;198.87;;;5.50;99.90;;;;;;5057128;28;20486;-58
2023/01/01 01:21:08;;;;;;;1047.50;257.40;;;5.50;99.90;;;;;;5044638;28;20713;-59
2023/01/01 01:23:35;;;;;;;1043.00;289.40;;;5.50;99.90;;;;;;5068561;28;20590;-60
2023/01/01 01:26:07;;;;;;;663.87;290.07;;;5.50;99.90;;;;;;5061565;28;20424;-59
2023/01/01 01:28:33;;;;;;;1776.47;376.77;;;5.50;99.90;;;;;;5062239;28;20563;-59
2023/01/01 01:30:59;;;;;;;1362.37;367.93;;;5.50;99.90;;;;;;5065951;28;20952;-59
2023/01/01 01:33:24;;;;;;;1438.33;399.97;;;5.50;99.90;;;;;;5071173;28;20194;-59
2023/01/01 01:35:53;;;;;;;2266.67;473.30;;;5.50;99.90;;;;;;5060204;28;20585;-59
2023/01/01 01:38:19;;;;;;;2115.17;449.77;;;5.50;99.90;;;;;;5064427;28;20212;-59
2023/01/01 01:40:44;;;;;;;1921.87;446.10;;;5.50;99.90;;;;;;5080726;28;20428;-59
2023/01/01 01:43:24;;;;;;;2266.67;631.50;;;5.50;99.90;;;;;;5069515;28;20214;-59
2023/01/01 01:45:55;;;;;;;2266.67;524.70;;;5.50;99.90;;;;;;5061004;28;20553;-59
2023/01/01 01:48:23;;;;;;;2266.67;596.37;;;5.40;99.90;;;;;;5069637;28;20510;-59
2023/01/01 01:50:52;;;;;;;2266.67;595.80;;;5.40;99.90;;;;;;5064604;28;20429;-60
2023/01/01 01:53:22;;;;;;;2266.67;592.30;;;5.40;99.90;;;;;;5067578;28;20987;-59
2023/01/01 01:55:54;;;;;;;2266.67;628.73;;;5.40;99.90;;;;;;5076155;28;20473;-59
2023/01/01 01:58:21;;;;;;;2242.10;532.57;;;5.30;99.90;;;;;;5062877;28;20531;-59
2023/01/01 02:00:47;;;;;;;2266.67;675.13;;;5.30;99.90;;;;;;5073835;28;20421;-59
2023/01/01 02:03:35;;;;;;;2266.67;675.83;;;5.30;99.90;;;;;;5071741;28;20454;-59
2023/01/01 02:06:02;;;;;;;2266.67;573.13;;;5.30;99.90;;;;;;5074288;28;20522;-59
2023/01/01 02:08:28;;;;;;;2064.23;502.30;;;5.20;99.90;;;;;;5078602;28;20452;-59
2023/01/01 02:10:54;;;;;;;2155.23;522.20;;;5.20;99.90;;;;;;5067367;28;21129;-59
2023/01/01 02:13:20;;;;;;;2266.67;592.50;;;5.20;99.90;;;;;;5057490;28;20452;-59
2023/01/01 02:16:14;;;;;;;2266.67;584.97;;;5.10;99.90;;;;;;5062553;28;20428;-59
2023/01/01 02:18:51;;;;;;;2108.13;488.73;;;5.10;99.90;;;;;;5061149;28;20433;-59
2023/01/01 02:21:22;;;;;;;2115.47;493.97;;;5.00;99.90;;;;;;5058438;28;20478;-59
2023/01/01 02:24:19;;;;;;;2266.67;559.33;;;5.00;99.90;;;;;;5056402;28;20436;-59
2023/01/01 02:26:55;;;;;;;2266.67;492.20;;;5.00;99.90;;;;;;5063009;28;20460;-59
2023/01/01 02:29:32;;;;;;;982.40;374.83;;;5.00;99.90;;;;;;5057294;28;20668;-59
2023/01/01 02:32:09;;;;;;;808.67;368.40;;;5.00;99.90;;;;;;5068089;28;20440;-60
2023/01/01 02:34:51;;;;;;;880.03;347.57;;;5.00;99.90;;;;;;5064127;28;22348;-59
2023/01/01 02:37:20;;;;;;;1541.60;388.97;;;5.00;99.90;;;;;;5063865;28;20440;-58
2023/01/01 02:39:58;;;;;;;1731.93;395.43;;;5.00;99.90;;;;;;5061673;28;20791;-61
2023/01/01 02:42:27;;;;;;;1326.90;377.73;;;5.00;99.90;;;;;;5068197;28;20449;-59
2023/01/01 02:44:57;;;;;;;1420.27;366.20;;;5.00;99.90;;;;;;5073164;28;20455;-60
2023/01/01 02:47:22;;;;;;;737.73;300.47;;;5.00;99.90;;;;;;5066597;28;20452;-59
2023/01/01 02:50:13;;;;;;;784.27;312.20;;;5.00;99.90;;;;;;5064844;28;20429;-58
2023/01/01 02:53:01;;;;;;;1575.43;362.77;;;4.90;99.90;;;;;;5060258;28;20232;-58
2023/01/01 02:55:57;;;;;;;770.13;294.50;;;5.00;99.90;;;;;;5067545;28;20512;-59
2023/01/01 03:01:33;;;;;;;2266.67;422.73;;;5.00;99.90;;;;;;5062227;28;20464;-58
2023/01/01 03:04:19;;;;;;;929.90;307.40;;;5.00;99.90;;;;;;5063672;28;20502;-57
2023/01/01 03:06:45;;;;;;;699.97;303.00;;;5.00;99.90;;;;;;5060983;28;20452;-60
2023/01/01 03:09:26;;;;;;;611.43;303.70;;;5.00;99.90;;;;;;5076052;28;20462;-59
2023/01/01 03:12:01;;;;;;;661.37;323.87;;;5.00;99.90;;;;;;5067430;28;20217;-58
2023/01/01 03:14:47;;;;;;;1759.90;392.13;;;5.00;99.90;;;;;;5065257;28;20505;-59
2023/01/01 03:17:28;;;;;;;742.63;317.97;;;4.90;99.90;;;;;;5056433;28;20558;-58
2023/01/01 03:19:56;;;;;;;1726.17;389.73;;;4.90;99.90;;;;;;5063635;28;21166;-58
2023/01/01 03:22:27;;;;;;;1510.20;369.73;;;4.90;99.90;;;;;;5061700;28;20558;-58
2023/01/01 03:25:03;;;;;;;771.40;318.07;;;4.90;99.90;;;;;;5065037;28;20452;-59
2023/01/01 03:27:38;;;;;;;693.93;310.80;;;4.90;99.90;;;;;;5073560;28;20463;-58
2023/01/01 03:30:08;;;;;;;873.83;333.00;;;4.90;99.90;;;;;;5069436;28;20538;-59
2023/01/01 03:35:31;;;;;;;885.20;336.57;;;4.90;99.90;;;;;;5062932;28;20451;-58
2023/01/01 03:37:59;;;;;;;1826.90;383.77;;;4.90;99.90;;;;;;5069366;28;20816;-59
2023/01/01 03:40:27;;;;;;;1132.90;320.80;;;4.90;99.90;;;;;;5065048;28;20421;-58
2023/01/01 03:43:01;;;;;;;1051.20;317.37;;;4.90;99.90;;;;;;5059145;28;20513;-60
2023/01/01 03:45:35;;;;;;;1442.00;360.50;;;4.90;99.90;;;;;;5075115;28;20431;-59
2023/01/01 03:48:01;;;;;;;1017.60;318.37;;;4.90;99.90;;;;;;5060814;28;20455;-58
2023/01/01 03:51:04;;;;;;;1514.80;356.57;;;4.80;99.90;;;;;;5069394;28;20436;-59
2023/01/01 03:53:39;;;;;;;1012.23;316.50;;;4.80;99.90;;;;;;5053647;28;20436;-58
2023/01/01 03:56:24;;;;;;;1599.10;354.47;;;4.70;99.90;;;;;;5067425;28;20424;-60
2023/01/01 03:58:58;;;;;;;886.80;293.07;;;4.70;99.90;;;;;;5070431;28;20881;-58
2023/01/01 04:01:35;;;;;;;1746.57;362.23;;;4.70;99.90;;;;;;5055379;28;20940;-59
2023/01/01 04:04:03;;;;;;;1440.10;320.90;;;4.70;99.90;;;;;;5061157;28;20920;-58
2023/01/01 04:06:31;;;;;;;679.93;259.87;;;4.60;99.90;;;;;;5066909;28;20424;-58
2023/01/01 04:08:59;;;;;;;725.63;275.00;;;4.60;99.90;;;;;;5067720;28;20440;-58
2023/01/01 04:14:13;;;;;;;850.13;278.47;;;4.60;99.90;;;;;;5059448;28;20423;-58
2023/01/01 04:16:38;;;;;;;628.47;219.47;;;4.60;99.90;;;;;;5051421;28;20425;-58
2023/01/01 04:19:05;;;;;;;553.47;205.20;;;4.60;99.90;;;;;;5057498;28;20994;-58
2023/01/01 04:21:32;;;;;;;799.73;224.67;;;4.70;99.90;;;;;;5066449;28;20194;-58
2023/01/01 04:23:57;;;;;;;447.90;177.30;;;4.60;99.90;;;;;;5065278;28;20420;-59
2023/01/01 04:26:23;;;;;;;416.03;160.43;;;4.60;99.90;;;;;;5060887;28;20436;-59
2023/01/01 04:28:49;;;;;;;501.07;194.00;;;4.60;99.90;;;;;;5054336;28;20189;-60
2023/01/01 04:31:14;;;;;;;785.33;218.30;;;4.60;99.90;;;;;;5064977;28;20848;-60
2023/01/01 04:33:40;;;;;;;750.73;194.80;;;4.60;99.90;;;;;;5054340;28;20179;-59
2023/01/01 04:36:09;;;;;;;617.80;208.30;;;4.60;99.90;;;;;;5057150;28;20605;-60
2023/01/01 04:38:36;;;;;;;679.97;217.00;;;4.60;99.90;;;;;;5060596;28;20194;-60
2023/01/01 04:41:03;;;;;;;959.47;236.53;;;4.60;99.90;;;;;;5068010;28;20936;-59
2023/01/01 04:43:29;;;;;;;1057.60;237.90;;;4.60;99.90;;;;;;5056595;28;20971;-60
2023/01/01 04:46:00;;;;;;;1055.33;227.73;;;4.50;99.90;;;;;;5043740;28;20597;-60
2023/01/01 04:48:27;;;;;;;463.17;186.33;;;4.40;99.90;;;;;;5060496;28;21179;-60
2023/01/01 04:50:57;;;;;;;1086.27;236.23;;;4.40;99.90;;;;;;5053898;28;20476;-59
2023/01/01 04:53:23;;;;;;;621.50;189.67;;;4.30;99.90;;;;;;5064617;28;20567;-59
2023/01/01 04:55:50;;;;;;;625.47;189.20;;;4.30;99.90;;;;;;5050072;28;20437;-59
2023/01/01 04:58:15;;;;;;;977.83;216.50;;;4.30;99.90;;;;;;5066743;28;20432;-59
2023/01/01 05:00:41;;;;;;;716.30;183.80;;;4.30;99.90;;;;;;5051784;28;20444;-60
2023/01/01 05:03:06;;;;;;;732.53;185.90;;;4.30;99.90;;;;;;5048494;28;20246;-60
2023/01/01 05:05:32;;;;;;;797.03;186.73;;;4.20;99.90;;;;;;5057691;28;20204;-60
2023/01/01 05:07:58;;;;;;;785.37;180.87;;;4.20;99.90;;;;;;5060974;28;20280;-61
2023/01/01 05:10:23;;;;;;;553.00;159.00;;;4.20;99.90;;;;;;5052494;28;20186;-59
2023/01/01 05:12:49;;;;;;;482.57;146.77;;;4.20;99.90;;;;;;5066462;28;20206;-59
2023/01/01 05:15:14;;;;;;;377.50;125.50;;;4.20;99.90;;;;;;5060881;28;20557;-59
2023/01/01 05:17:40;;;;;;;627.30;141.67;;;4.20;99.90;;;;;;5058773;28;20174;-60
2023/01/01 05:20:06;;;;;;;551.27;121.70;;;4.20;99.90;;;;;;5057078;28;20182;-59
2023/01/01 05:22:32;;;;;;;516.23;110.77;;;4.20;99.90;;;;;;5063873;28;20356;-59
2023/01/01 05:24:57;;;;;;;650.27;117.77;;;4.20;99.90;;;;;;5061691;28;20512;-60
2023/01/01 05:27:23;;;;;;;638.77;127.37;;;4.10;99.90;;;;;;5066671;28;20202;-60
2023/01/01 05:29:48;;;;;;;572.50;129.17;;;4.10;99.90;;;;;;5066395;28;20713;-59
2023/01/01 05:32:14;;;;;;;518.23;135.07;;;4.00;99.90;;;;;;5060904;28;20198;-59
2023/01/01 05:34:40;;;;;;;544.23;141.17;;;3.90;99.90;;;;;;5072127;28;20235;-59
2023/01/01 05:37:05;;;;;;;523.40;138.53;;;3.80;99.90;;;;;;5065740;28;20179;-60
2023/01/01 05:39:31;;;;;;;442.23;128.57;;;3.80;99.90;;;;;;5068383;28;20682;-59
2023/01/01 05:41:56;;;;;;;381.20;121.80;;;3.70;99.90;;;;;;5062768;28;20281;-59
2023/01/01 05:44:22;;;;;;;386.80;112.23;;;3.70;99.90;;;;;;5056269;28;20556;-60
2023/01/01 05:46:48;;;;;;;399.63;106.57;;;3.60;99.90;;;;;;5059151;28;20206;-59
2023/01/01 05:49:13;;;;;;;366.77;106.20;;;3.60;99.90;;;;;;5064491;28;20182;-59
2023/01/01 05:51:39;;;;;;;303.80;101.37;;;3.60;99.90;;;;;;5060951;28;20191;-59
2023/01/01 05:54:05;;;;;;;274.00;105.17;;;3.60;99.90;;;;;;5078606;28;20174;-60
2023/01/01 05:56:31;;;;;;;219.63;97.77;;;3.60;99.90;;;;;;5071149;28;20174;-59
2023/01/01 05:58:56;;;;;;;244.33;99.17;;;3.60;99.90;;;;;;5075903;28;20417;-59
2023/01/01 06:01:24;;;;;;;252.30;97.73;;;3.60;99.90;;;;;;5062463;28;20175;-59
2023/01/01 06:03:51;;;;;;;189.27;98.60;;;3.60;99.90;;;;;;5065032;28;20663;-59
2023/01/01 06:06:23;;;;;;;270.47;93.77;;;3.60;99.90;;;;;;5064221;28;20432;-59
2023/01/01 06:08:54;;;;;;;262.70;94.30;;;3.60;99.90;;;;;;5068848;28;20566;-59
2023/01/01 06:11:20;;;;;;;174.23;92.60;;;3.60;99.90;;;;;;5057706;28;20844;-59
2023/01/01 06:13:46;;;;;;;200.87;97.20;;;3.70;99.90;;;;;;5059611;28;20988;-59
2023/01/01 06:16:12;;;;;;;228.93;93.30;;;3.70;99.90;;;;;;5069605;28;20209;-59
2023/01/01 06:18:38;;;;;;;198.57;91.13;;;3.70;99.90;;;;;;5067247;28;20535;-59
2023/01/01 06:21:18;;;;;;;238.53;92.23;;;3.70;99.90;;;;;;5071476;28;20412;-61
2023/01/01 06:23:44;;;;;;;229.73;88.37;;;3.70;99.90;;;;;;5061219;28;20446;-59
2023/01/01 06:26:17;;;;;;;189.73;84.77;;;3.70;99.90;;;;;;5065515;28;20445;-59
2023/01/01 06:28:44;;;;;;;199.33;87.10;;;3.70;99.90;;;;;;5075942;28;20458;-59
2023/01/01 06:31:12;;;;;;;169.07;88.67;;;3.70;99.90;;;;;;5064559;28;20435;-59
2023/01/01 06:33:37;;;;;;;216.53;93.27;;;3.70;99.90;;;;;;5071409;28;20424;-59
2023/01/01 06:36:06;;;;;;;211.40;85.23;;;3.70;99.90;;;;;;5057352;28;20851;-59
2023/01/01 06:38:33;;;;;;;175.27;87.53;;;3.70;99.90;;;;;;5057228;28;20244;-59
2023/01/01 06:41:01;;;;;;;215.50;86.53;;;3.70;99.90;;;;;;5074155;28;20484;-59
2023/01/01 06:43:29;;;;;;;259.43;91.83;;;3.70;99.90;;;;;;5065142;28;20960;-60
2023/01/01 06:46:23;;;;;;;234.23;96.13;;;3.70;99.90;;;;;;5057595;28;20513;-59
2023/01/01 06:48:51;;;;;;;296.87;88.53;;;3.70;99.90;;;;;;5057524;28;20461;-59
2023/01/01 06:51:19;;;;;;;251.83;84.70;;;3.70;99.90;;;;;;5046551;28;20464;-60
2023/01/01 06:53:46;;;;;;;281.07;84.03;;;3.70;99.90;;;;;;5061088;28;20420;-59
2023/01/01 06:56:12;;;;;;;277.27;87.60;;;3.60;99.90;;;;;;5066001;28;20459;-59
2023/01/01 06:58:38;;;;;;;216.90;78.10;;;3.60;99.90;;;;;;5077500;28;20896;-59
2023/01/01 07:01:12;;;;;;;199.67;82.40;;;3.60;99.90;;;;;;5069080;28;20428;-59
2023/01/01 07:03:38;;;;;;;245.87;83.87;;;3.60;99.90;;;;;;5086592;28;20181;-59
2023/01/01 07:06:05;;;;;;;279.60;81.70;;;3.60;99.90;;;;;;5068564;28;20443;-59
2023/01/01 07:08:31;;;;;;;226.83;79.00;;;3.60;99.90;;;;;;5064698;28;20850;-59
2023/01/01 07:10:56;;;;;;;169.70;65.03;;;3.60;99.90;;;;;;5077095;28;20519;-59
2023/01/01 07:13:26;;;;;;;195.03;70.60;;;3.50;99.90;;;;;;5069688;28;20198;-59
2023/01/01 07:15:52;;;;;;;221.37;75.87;;;3.50;99.90;;;;;;5072687;28;20197;-59
2023/01/01 07:18:19;;;;;;;191.97;82.87;;;3.50;99.90;;;;;;5062468;28;20859;-59
2023/01/01 07:20:57;;;;;;;185.43;80.00;;;3.50;99.90;;;;;;5069808;28;20473;-59
2023/01/01 07:23:23;;;;;;;198.77;82.43;;;3.50;99.90;;;;;;5055449;28;20448;-59
2023/01/01 07:25:50;;;;;;;158.37;83.97;;;3.50;99.90;;;;;;5061328;28;22338;-60
2023/01/01 07:28:16;;;;;;;164.17;81.90;;;3.50;99.90;;;;;;5053924;28;20470;-59
2023/01/01 07:30:41;;;;;;;152.93;77.07;;;3.50;99.90;;;;;;5063221;28;20429;-59
2023/01/01 07:33:15;;;;;;;188.80;83.37;;;3.50;99.90;;;;;;5063653;28;20190;-59
2023/01/01 07:35:43;;;;;;;182.03;82.30;;;3.50;99.90;;;;;;5060904;28;20187;-59
2023/01/01 07:38:09;;;;;;;164.93;81.00;;;3.50;99.90;;;;;;5069555;28;20432;-61
2023/01/01 07:40:35;;;;;;;169.57;79.57;;;3.50;99.90;;;;;;5067971;28;20443;-59
2023/01/01 07:43:00;;;;;;;240.13;85.27;;;3.50;99.90;;;;;;5070020;28;20271;-59
2023/01/01 07:45:26;;;;;;;200.00;87.80;;;3.50;99.90;;;;;;5064356;28;20215;-59
2023/01/01 07:47:53;;;;;;;167.43;83.90;;;3.50;99.90;;;;;;5063576;28;20221;-60
2023/01/01 07:50:20;;;;;;;161.67;79.07;;;3.50;99.90;;;;;;5064685;28;20433;-59
2023/01/01 07:52:45;;;;;;;153.93;79.63;;;3.60;99.90;;;;;;5055975;28;20471;-59
2023/01/01 07:55:16;;;;;;;153.00;82.07;;;3.60;99.90;;;;;;5062578;28;20428;-59
2023/01/01 07:57:43;;;;;;;160.20;78.50;;;3.60;99.90;;;;;;5051423;28;20190;-61
2023/01/01 08:00:10;;;;;;;150.37;76.43;;;3.70;99.90;;;;;;5051415;28;22332;-60
2023/01/01 08:02:36;;;;;;;159.07;70.50;;;3.70;99.90;;;;;;5061416;28;20459;-59
2023/01/01 08:05:02;;;;;;;167.20;73.10;;;3.80;99.90;;;;;;5046677;28;21153;-59
2023/01/01 08:07:28;;;;;;;156.23;74.57;;;3.80;99.90;;;;;;5059894;28;20647;-58
2023/01/01 08:09:53;;;;;;;156.43;76.97;;;3.90;99.90;;;;;;5050818;28;20179;-59
2023/01/01 08:12:19;;;;;;;166.37;75.53;;;3.90;99.90;;;;;;5058350;28;20268;-58
2023/01/01 08:14:44;;;;;;;224.33;65.63;;;3.90;99.90;;;;;;5061966;28;21071;-58
2023/01/01 08:17:10;;;;;;;141.70;68.37;;;3.90;99.90;;;;;;5050676;28;20183;-59
2023/01/01 08:19:35;;;;;;;233.53;66.57;;;3.80;99.90;;;;;;5034852;28;20667;-59
2023/01/01 08:22:01;;;;;;;192.13;71.27;;;3.90;99.90;;;;;;5058433;28;20202;-58
2023/01/01 08:24:26;;;;;;;162.20;64.30;;;3.90;99.90;;;;;;5049749;28;20663;-60
2023/01/01 08:26:52;;;;;;;118.13;60.10;;;3.90;99.90;;;;;;5051724;28;20205;-59
2023/01/01 08:29:20;;;;;;;112.30;60.87;;;3.90;99.90;;;;;;5060548;28;20189;-59
2023/01/01 08:31:46;;;;;;;100.97;56.63;;;3.90;99.90;;;;;;5050199;28;20206;-58
2023/01/01 08:34:11;;;;;;;105.03;59.30;;;4.00;99.90;;;;;;5055844;28;20532;-59
2023/01/01 08:36:39;;;;;;;102.10;56.63;;;4.10;99.90;;;;;;5056727;28;20647;-58
2023/01/01 08:39:05;;;;;;;108.13;62.53;;;4.10;99.90;;;;;;5054949;28;20302;-58
2023/01/01 08:41:31;;;;;;;125.87;69.63;;;4.20;99.90;;;;;;5060767;28;21078;-60
2023/01/01 08:43:57;;;;;;;126.33;69.13;;;4.20;99.90;;;;;;5058219;28;20424;-60
2023/01/01 08:46:23;;;;;;;125.43;69.83;;;4.30;99.90;;;;;;5058329;28;21542;-59
2023/01/01 08:48:48;;;;;;;164.00;76.17;;;4.30;99.90;;;;;;5059487;28;20230;-58
2023/01/01 08:51:14;;;;;;;135.77;72.57;;;4.30;99.90;;;;;;5057403;28;20255;-59
2023/01/01 08:53:40;;;;;;;129.70;72.20;;;4.30;99.90;;;;;;5058300;28;20172;-59
2023/01/01 08:56:09;;;;;;;137.27;74.90;;;4.30;99.90;;;;;;5062523;28;20724;-58
2023/01/01 08:58:36;;;;;;;138.27;75.27;;;4.30;99.90;;;;;;5065684;28;20170;-58
2023/01/01 09:01:02;;;;;;;130.37;73.10;;;4.40;99.90;;;;;;5052701;28;20913;-60
2023/01/01 09:06:03;;;;;;;186.10;56.23;;;4.40;99.90;;;;;;5030277;28;20481;-53
2023/01/01 09:08:29;;;;;;;186.27;50.77;;;4.40;99.90;;;;;;5027422;28;20465;-53
2023/01/01 09:10:59;;;;;;;330.20;50.60;;;4.40;99.90;;;;;;5040469;28;20172;-53
2023/01/01 09:13:25;;;;;;;269.40;47.57;;;4.30;99.90;;;;;;5041137;28;20176;-53
2023/01/01 09:15:51;;;;;;;348.23;47.53;;;4.30;99.90;;;;;;5034882;28;21598;-52
2023/01/01 09:18:17;;;;;;;190.80;45.27;;;4.30;99.90;;;;;;5017339;28;20812;-53
2023/01/01 09:20:42;;;;;;;108.70;41.97;;;4.30;99.90;;;;;;5017756;28;20194;-54
2023/01/01 09:23:10;;;;;;;139.67;45.23;;;4.30;99.90;;;;;;5020225;28;20264;-53
2023/01/01 09:25:35;;;;;;;72.43;41.57;;;4.40;99.90;;;;;;5024461;28;20199;-54
2023/01/01 09:28:04;;;;;;;71.43;38.87;;;4.50;99.90;;;;;;5019669;28;20917;-53
2023/01/01 09:30:31;;;;;;;107.37;40.07;;;4.60;99.90;;;;;;5019690;28;20208;-53
2023/01/01 09:32:56;;;;;;;146.50;40.60;;;4.70;99.90;;;;;;5025812;28;20521;-54
2023/01/01 09:35:22;;;;;;;132.90;41.60;;;4.80;99.90;;;;;;5017877;28;20452;-53
2023/01/01 09:37:48;;;;;;;62.63;37.40;;;4.90;99.90;;;;;;5017857;28;20203;-53
2023/01/01 09:40:50;;;;;;;52.20;35.60;;;5.00;99.90;;;;;;5017851;28;20833;-54
2023/01/01 09:43:44;;;;;;;56.20;36.17;;;5.10;99.90;;;;;;5024790;28;20448;-53
2023/01/01 09:46:12;;;;;;;52.30;34.57;;;5.20;99.90;;;;;;5019803;28;20438;-53
2023/01/01 09:48:47;;;;;;;59.43;38.60;;;5.40;99.90;;;;;;5020058;28;20473;-53
2023/01/01 09:51:16;;;;;;;55.50;34.37;;;5.50;99.90;;;;;;5023430;28;20468;-53
2023/01/01 09:53:51;;;;;;;55.80;36.10;;;5.70;99.90;;;;;;5018558;28;20431;-53
2023/01/01 09:56:25;;;;;;;57.67;37.97;;;5.90;99.90;;;;;;5018148;28;20442;-53
2023/01/01 09:58:50;;;;;;;53.10;36.27;;;6.10;99.90;;;;;;5015796;28;20526;-54
2023/01/01 10:01:32;;;;;;;49.93;34.53;;;6.30;99.90;;;;;;5016507;28;20525;-54
2023/01/01 10:04:09;;;;;;;54.40;36.30;;;6.40;99.90;;;;;;5008510;28;20237;-54
2023/01/01 10:07:02;;;;;;;56.17;38.07;;;6.60;99.90;;;;;;4997228;28;20446;-53
2023/01/01 10:10:07;;;;;;;56.33;37.27;;;6.70;99.90;;;;;;5016678;28;20442;-54
2023/01/01 10:12:40;;;;;;;55.47;38.30;;;6.90;99.90;;;;;;5004835;28;20440;-54
2023/01/01 10:15:22;;;;;;;62.17;42.07;;;7.00;99.90;;;;;;5002379;28;21044;-54
2023/01/01 10:17:53;;;;;;;56.93;38.97;;;7.00;99.90;;;;;;5004323;28;20445;-54
2023/01/01 10:20:35;;;;;;;56.20;38.50;;;7.10;99.90;;;;;;5027729;28;20449;-55
2023/01/01 10:23:10;;;;;;;58.33;38.70;;;7.20;99.90;;;;;;5017964;28;20434;-55
2023/01/01 10:25:38;;;;;;;59.83;39.40;;;7.40;99.90;;;;;;5012577;28;20464;-55
2023/01/01 10:28:12;;;;;;;56.97;39.10;;;7.50;99.90;;;;;;5019952;28;20521;-56
2023/01/01 10:30:40;;;;;;;60.40;39.80;;;7.70;99.90;;;;;;5019286;28;20535;-55
2023/01/01 10:33:12;;;;;;;50.50;35.37;;;7.80;99.90;;;;;;5005220;28;20457;-55
2023/01/01 10:35:43;;;;;;;49.63;32.43;;;8.00;99.90;;;;;;5014603;28;20461;-55
2023/01/01 10:38:19;;;;;;;47.50;33.93;;;8.20;99.90;;;;;;5007602;28;20430;-55
2023/01/01 10:40:45;;;;;;;47.33;33.60;;;8.30;99.90;;;;;;5001020;28;20966;-54
2023/01/01 10:43:11;;;;;;;45.77;31.93;;;8.50;99.90;;;;;;5014195;28;20437;-57
2023/01/01 10:45:50;;;;;;;46.03;31.33;;;8.60;99.90;;;;;;5012744;28;20272;-51
2023/01/01 10:48:25;;;;;;;45.00;30.93;;;8.70;99.90;;;;;;5020101;28;20458;-53
2023/01/01 10:50:52;;;;;;;48.43;29.40;;;8.80;99.90;;;;;;5007245;28;20441;-54
2023/01/01 10:53:24;;;;;;;40.70;29.60;;;9.00;99.90;;;;;;5008378;28;21150;-54
2023/01/01 10:55:57;;;;;;;49.33;33.80;;;9.00;99.90;;;;;;5013235;28;20952;-57
2023/01/01 10:58:43;;;;;;;39.80;30.03;;;9.10;99.90;;;;;;5018182;28;20427;-54
2023/01/01 11:01:12;;;;;;;44.27;31.77;;;9.30;99.90;;;;;;5011328;28;20441;-57
2023/01/01 11:04:06;;;;;;;44.50;32.20;;;9.30;99.90;;;;;;5011235;28;20438;-55
2023/01/01 11:06:40;;;;;;;36.80;26.23;;;9.50;99.90;;;;;;5013776;28;20521;-54
2023/01/01 11:09:25;;;;;;;37.60;26.33;;;9.60;99.90;;;;;;5016441;28;20434;-55
2023/01/01 11:12:01;;;;;;;38.47;27.33;;;9.80;99.90;;;;;;5035338;28;20856;-57
2023/01/01 11:14:38;;;;;;;41.27;29.20;;;9.90;99.90;;;;;;5015437;28;20446;-56
2023/01/01 11:17:04;;;;;;;37.57;24.43;;;10.10;99.90;;;;;;5017791;28;21089;-54
2023/01/01 11:19:33;;;;;;;38.03;23.93;;;10.20;99.90;;;;;;5012460;28;21077;-54
2023/01/01 11:22:00;;;;;;;31.23;20.33;;;10.40;99.90;;;;;;5013299;28;20448;-54
2023/01/01 11:24:27;;;;;;;25.10;18.00;;;10.50;99.90;;;;;;5026697;28;20531;-54
2023/01/01 11:27:20;;;;;;;25.97;18.43;;;10.60;99.90;;;;;;5013698;28;20438;-54
2023/01/01 11:29:46;;;;;;;28.57;18.33;;;10.80;99.90;;;;;;5020373;28;20427;-53
2023/01/01 11:32:37;;;;;;;24.60;16.67;;;10.90;99.90;;;;;;5019289;28;20465;-56
2023/01/01 11:35:06;;;;;;;20.87;15.10;;;11.00;99.90;;;;;;5006893;28;20454;-54
2023/01/01 11:37:38;;;;;;;17.87;12.23;;;11.10;99.90;;;;;;5021694;28;20806;-53
2023/01/01 11:40:13;;;;;;;16.60;11.50;;;11.20;99.90;;;;;;5017937;28;20430;-54
2023/01/01 11:42:47;;;;;;;16.47;10.93;;;11.20;99.90;;;;;;5018654;28;20477;-54
2023/01/01 11:45:15;;;;;;;15.40;9.80;;;11.30;99.90;;;;;;5023896;28;20505;-54
2023/01/01 11:47:43;;;;;;;7.57;3.90;;;11.30;99.90;;;;;;5027467;28;20495;-54
2023/01/01 11:50:35;;;;;;;7.73;3.80;;;11.30;99.90;;;;;;5033558;28;20414;-54
2023/01/01 11:53:26;;;;;;;10.80;4.43;;;11.30;99.90;;;;;;5027719;28;20740;-53
2023/01/01 11:55:55;;;;;;;8.00;4.03;;;11.40;99.90;;;;;;5026099;28;20631;-55
2023/01/01 11:58:35;;;;;;;7.93;4.60;;;11.50;99.90;;;;;;5027101;28;20430;-55
2023/01/01 12:01:09;;;;;;;8.20;4.30;;;11.50;99.90;;;;;;5030928;28;20563;-54
2023/01/01 12:03:45;;;;;;;6.80;4.20;;;11.50;99.90;;;;;;5026172;28;20434;-55
2023/01/01 12:06:32;;;;;;;6.07;4.20;;;11.40;99.90;;;;;;5026438;28;20469;-54
2023/01/01 12:09:13;;;;;;;8.47;3.27;;;11.40;99.90;;;;;;5024211;28;20462;-54
2023/01/01 12:11:50;;;;;;;7.37;3.53;;;11.40;99.90;;;;;;5039055;28;20436;-54
2023/01/01 12:14:24;;;;;;;9.20;3.70;;;11.50;99.90;;;;;;5012809;28;20477;-55
2023/01/01 12:16:54;;;;;;;6.07;3.57;;;11.50;99.90;;;;;;5020155;28;20453;-55
2023/01/01 12:19:33;;;;;;;7.37;4.03;;;11.60;99.90;;;;;;5016821;28;20442;-53
2023/01/01 12:22:00;;;;;;;8.30;4.40;;;11.60;99.90;;;;;;5003663;28;20973;-52
2023/01/01 12:24:33;;;;;;;9.23;4.33;;;11.60;99.90;;;;;;4991334;28;20457;-48
2023/01/01 12:27:11;;;;;;;5.00;3.87;;;11.60;99.90;;;;;;5014985;28;21069;-55
2023/01/01 12:29:58;;;;;;;7.07;3.60;;;11.70;99.90;;;;;;5017490;28;20434;-54
2023/01/01 12:32:33;;;;;;;9.50;3.90;;;11.70;99.90;;;;;;5018962;28;20431;-54
2023/01/01 12:35:27;;;;;;;5.90;3.97;;;11.70;99.90;;;;;;5017990;28;20524;-55
2023/01/01 12:38:22;;;;;;;6.63;3.50;;;11.70;99.90;;;;;;5020805;28;20449;-55
2023/01/01 12:40:48;;;;;;;5.07;3.70;;;11.70;99.90;;;;;;5025006;28;20419;-55
2023/01/01 12:43:39;;;;;;;10.30;4.30;;;11.80;99.90;;;;;;5011600;28;20442;-54
2023/01/01 12:46:36;;;;;;;8.93;3.80;;;11.80;99.90;;;;;;5003735;28;20442;-55
2023/01/01 12:49:17;;;;;;;4.50;3.20;;;11.80;99.90;;;;;;5009374;28;20957;-53
2023/01/01 12:51:48;;;;;;;9.20;3.57;;;11.80;99.90;;;;;;5009476;28;20433;-54
2023/01/01 12:54:25;;;;;;;8.67;3.87;;;11.80;99.90;;;;;;5018315;28;20491;-54